Friday, November 24, 2017, 5:40 AM GMT
Back to Local

CYPD, Port Hawkesbury

Location: , , Canada Lat: 45.667
Local Time: 5:40 AM GMT ( 5:40 GMT) Lon: -61.383
Time Zone: GMT Elev: 374 ft

Show me the last for .
Show Decoded

2017-11-24 05:00 METAR CYPD 240500Z AUTO 23005KT 190V290 9SM OVC019 M02/M04 A2976 RMK SLP084 =
2017-11-24 04:10 METAR CYPD 240410Z AUTO 28010G16KT 9SM BKN019 BKN200 M00/M04 A2977 RMK SLP086 =
2017-11-24 04:00 METAR CYPD 240400Z AUTO 28010G18KT 9SM SCT019 BKN200 M00/M04 A2977 RMK SLP087 =
2017-11-24 03:00 METAR CYPD 240300Z AUTO 29011G17KT 9SM FEW019 SCT200 M00/M04 A2977 RMK SLP087 =
2017-11-24 02:23 METAR CYPD 240223Z AUTO 27014G19KT 9SM SCT019 M00/M04 A2978 RMK SLP089 =
2017-11-24 02:02 METAR CYPD 240202Z AUTO 27010KT 9SM BKN021 M00/M04 A2978 RMK SLP090 =
2017-11-24 02:00 METAR CYPD 240200Z AUTO 26009KT 9SM SCT021 M01/M04 A2978 RMK SLP090 =
2017-11-24 01:00 METAR CYPD 240100Z AUTO 26006KT 9SM BKN025 M00/M03 A2977 RMK SLP087 =
2017-11-24 00:00 METAR CYPD 240000Z AUTO 28015G20KT 9SM FEW022 01/M04 A2977 RMK SLP087 =
2017-11-23 23:00 METAR CYPD 232300Z AUTO 28015G22KT 9SM CLR 01/M03 A2976 RMK SLP083 =
2017-11-23 22:33 METAR CYPD 232233Z AUTO 27014G22KT 9SM SCT024 01/M03 A2976 RMK SLP082 =
2017-11-23 22:00 METAR CYPD 232200Z AUTO 27015G22KT 9SM BKN022 02/M03 A2973 RMK SLP073 =
2017-11-23 21:42 METAR CYPD 232142Z AUTO 28016G23KT 9SM BKN022 02/M03 A2972 RMK SLP068 =
2017-11-23 21:00 METAR CYPD 232100Z AUTO 28014G24KT 9SM SCT022 02/M03 A2971 RMK SLP064 =
2017-11-23 20:48 METAR CYPD 232048Z AUTO 28016G24KT 9SM SCT022 02/M03 A2971 RMK SLP064 =
2017-11-23 20:00 METAR CYPD 232000Z AUTO 28017G25KT 9SM BKN022 BKN026 02/M02 A2969 RMK SLP058 =
2017-11-23 19:00 METAR CYPD 231900Z AUTO 27023G33KT 9SM OVC020 03/M02 A2965 RMK SLP046 =
2017-11-23 18:00 METAR CYPD 231800Z AUTO 28025G32KT 9SM OVC018 03/M01 A2963 RMK SLP038 =
2017-11-23 17:00 METAR CYPD 231700Z AUTO 27022G36KT 9SM OVC016 03/M00 A2961 RMK SLP032 =
2017-11-23 16:00 METAR CYPD 231600Z AUTO 27025G39KT 9SM OVC014 03/00 A2958 RMK SLP020 =
2017-11-23 15:00 METAR CYPD 231500Z AUTO 28023G38KT 9SM OVC016 03/01 A2954 RMK SLP006 =
2017-11-23 14:00 METAR CYPD 231400Z AUTO 28028G41KT 9SM OVC016 04/01 A2948 RMK SLP987 =
2017-11-23 13:53 METAR CYPD 231353Z AUTO 28028G38KT 9SM OVC014 04/02 A2947 RMK PRESRR SLP985 =
2017-11-23 13:34 METAR CYPD 231334Z AUTO 28030G38KT 9SM 03/02 A2946 RMK CLD MISG SLP979 =
2017-11-23 13:00 METAR CYPD 231300Z AUTO /////KT RMK WND MISG CLD MISG WX MISG VIS MISG PCPN MISG
                 PRES MISG T MISG TD MISG ICG MISG DENSITY ALT MISG =
2017-11-23 12:00 METAR CYPD 231200Z AUTO /////KT RMK WND MISG CLD MISG WX MISG VIS MISG PCPN MISG
                 PRES MISG T MISG TD MISG ICG MISG DENSITY ALT MISG =
2017-11-23 11:00 METAR CYPD 231100Z AUTO /////KT 06/04 A2920 RMK PRESRR WND MISG CLD MISG WX MISG
                 VIS MISG PCPN MISG ICG MISG SLP893 =
2017-11-23 10:00 METAR CYPD 231000Z AUTO /////KT 12/11 A2910 RMK WND MISG CLD MISG WX MISG VIS
                 MISG PCPN MISG ICG MISG SLP857 DENSITY ALT 1000FT =
2017-11-23 09:00 METAR CYPD 230900Z AUTO /////KT 13/12 A2910 RMK WND MISG CLD MISG WX MISG VIS
                 MISG PCPN MISG ICG MISG SLP857 DENSITY ALT 1100FT =
2017-11-23 08:00 METAR CYPD 230800Z AUTO /////KT 13/12 A2918 RMK PRESFR WND MISG CLD MISG WX MISG
                 VIS MISG PCPN MISG ICG MISG SLP884 DENSITY ALT 1000FT =
2017-11-23 07:00 METAR CYPD 230700Z AUTO /////KT 1 1/4SM 11/11 A2930 RMK PRESFR WND MISG CLD MISG
                 PCPN MISG ICG MISG SLP925 DENSITY ALT 700FT =
2017-11-23 06:52 METAR CYPD 230652Z AUTO 12033G55KT 1 1/4SM RA BR BKN005 OVC014 11/11 A2931 RMK
                 PRESFR SLP928 DENSITY ALT 700FT =
2017-11-23 06:25 METAR CYPD 230625Z AUTO 11021G34KT 2 1/4SM RA BR OVC005 11/10 A2942 RMK VIS VRB
                 1 1/4-3 PRESFR SLP967 DENSITY ALT 500FT =
2017-11-23 06:19 METAR CYPD 230619Z AUTO 13020G29KT 3SM -RA BR OVC005 11/11 A2944 RMK PRESFR
                 SLP974 DENSITY ALT 500FT =
2017-11-23 06:06 METAR CYPD 230606Z AUTO 12015G27KT 2 1/4SM RA BR BKN005 OVC031 11/10 A2947 RMK
                 VIS VRB 1 3/4-3 PRESFR SLP981 DENSITY ALT 400FT =
2017-11-23 06:00 METAR CYPD 230600Z AUTO 13014G28KT 3SM -RA BR BKN005 OVC034 11/10 A2949 RMK
                 PRESFR PCPN 7.2MM PAST HR SLP990 DENSITY ALT 400FT =
2017-11-23 05:57 METAR CYPD 230557Z AUTO 13020G28KT 3SM -RA BR BKN005 OVC036 11/10 A2949 RMK
                 PRESFR SLP989 DENSITY ALT 400FT =
2017-11-23 05:44 METAR CYPD 230544Z AUTO 13019G28KT 2 1/4SM RA BR BKN005 BKN030 BKN042 OVC065
                 11/10 A2951 RMK SLP996 DENSITY ALT 400FT =
2017-11-23 05:42 METAR CYPD 230542Z AUTO 14016G26KT 2 1/4SM RA BR SCT005 BKN011 BKN033 OVC065
                 11/10 A2952 RMK SLP000 DENSITY ALT 400FT =

Support USWX by starting your Amazon purchase here.